Enter the Airport ICAO Code

Search by Airport or City

Current Weather

SAZN | Presidente Perón International Airport

Neuquén, Neuquén, Argentina

Last Update 12 Minutes Ago

Clear Sky

Temperature of 19 ºC

Calm Wind

Temperature

19 ºC

Dew Point Temperature

09 ºC

Relative Humidity

52.44 %

Wind Direction

None

Wind Velocity

0 km/h (0 kt)

Gusts

None

Visibility

No Significant Reductions

Sea Level Pressure

1009 hPa (Hectopascals)

Layers of Clouds

None

METAR SAZN 090200Z 00000KT CAVOK 19/09 Q1009

Weather Forecast

SAZN | Presidente Perón International Airport

Neuquén, Neuquén, Argentina

Forecast valid for the next 22 Hours

From now on it is expected:

Clear Sky

Light to Moderate Winds from West

In 16 to 18 hours it is expected the begining of:

Moderate Winds from SouthWest

Maximum Temperature

34 ºC in 16 Hours

Minimum Temperature

16 ºC in 7 Hours

TAF SAZN 082300Z 0900/0924 25005KT CAVOK TX34/0918Z TN16/0909Z BECMG 0918/0920 23015KT